Time;durP1;ratioP1;P1;durP2;ratioP2;P2;SDS_P1;SDS_P2;PMS_P1;PMS_P2;Temp;Humidity;BMP_temperature;BMP_pressure;BME280_temperature;BME280_humidity;BME280_pressure;Samples;Min_cycle;Max_cycle;Signal;HPM_P1;HPM_P2
2021/11/07 00:38:16;;;;;;;3.50;1.67;;;;;;;16.92;57.50;101619.47;4840694;29;20086;-81
2021/11/07 00:43:34;;;;;;;4.75;1.80;;;;;;;16.93;57.52;101621.22;4826348;29;20060;-81
2021/11/07 00:48:44;;;;;;;3.40;1.70;;;;;;;16.92;57.63;101615.19;4840341;29;20033;-82
2021/11/07 00:51:31;;;;;;;4.03;1.90;;;;;;;16.92;57.50;101607.38;4826335;29;20041;-82
2021/11/07 00:54:15;;;;;;;4.65;2.00;;;;;;;16.92;57.52;101617.78;4840892;29;20030;-82
2021/11/07 00:56:48;;;;;;;5.38;1.83;;;;;;;16.92;57.57;101627.28;4823333;29;20030;-80
2021/11/07 01:01:48;;;;;;;4.35;1.73;;;;;;;16.92;57.61;101609.97;4837909;29;20022;-81
2021/11/07 01:04:15;;;;;;;6.28;2.03;;;;;;;16.92;57.80;101612.56;4838720;29;20038;-80
2021/11/07 01:06:41;;;;;;;6.10;2.13;;;;;;;16.92;57.59;101617.78;4837708;29;20095;-80
2021/11/07 01:09:10;;;;;;;4.70;2.03;;;;;;;16.92;57.50;101611.69;4839611;29;20037;-81
2021/11/07 01:11:42;;;;;;;4.25;1.90;;;;;;;16.90;57.63;101597.78;4822985;29;20049;-81
2021/11/07 01:14:12;;;;;;;5.63;1.95;;;;;;;16.92;57.45;101609.97;4838670;29;20034;-81
2021/11/07 01:16:40;;;;;;;5.63;1.95;;;;;;;16.92;57.40;101607.38;4836889;29;20026;-81
2021/11/07 01:19:08;;;;;;;4.93;1.73;;;;;;;16.93;57.73;101611.69;4838507;29;20117;-81
2021/11/07 01:21:46;;;;;;;4.03;1.73;;;;;;;16.92;57.77;101611.69;4823245;29;20034;-81
2021/11/07 01:24:24;;;;;;;4.38;1.85;;;;;;;16.92;57.73;101596.06;4825858;29;20049;-81
2021/11/07 01:27:05;;;;;;;3.85;1.65;;;;;;;16.92;57.54;101596.06;4839861;29;20078;-81
2021/11/07 01:29:40;;;;;;;4.93;2.00;;;;;;;16.90;57.92;101593.50;4841428;29;20084;-81
2021/11/07 01:32:07;;;;;;;;;;;;;;;16.92;57.58;101588.28;4834346;29;20059;-81
2021/11/07 01:34:50;;;;;;;4.18;1.73;;;;;;;16.93;57.48;101608.22;4821379;29;19917;-81
2021/11/07 01:37:21;;;;;;;3.30;1.60;;;;;;;16.91;57.65;101597.81;4820347;29;20034;-81
2021/11/07 01:39:56;;;;;;;4.80;1.80;;;;;;;16.92;57.65;101601.28;4820171;29;20039;-80
2021/11/07 01:42:33;;;;;;;4.93;1.83;;;;;;;16.92;57.54;101604.78;4821533;29;20090;-81
2021/11/07 01:45:03;;;;;;;3.25;1.58;;;;;;;16.91;57.51;101592.63;4790852;29;20043;-81
2021/11/07 01:47:32;;;;;;;5.75;2.08;;;;;;;16.91;57.60;101602.16;4821233;29;20035;-81
2021/11/07 01:49:58;;;;;;;4.95;1.90;;;;;;;16.90;57.53;101597.78;4806141;29;20027;-80
2021/11/07 01:52:28;;;;;;;5.30;1.92;;;;;;;16.90;57.52;101588.28;4818036;29;20027;-81
2021/11/07 01:55:04;;;;;;;4.47;1.73;;;;;;;16.91;57.47;101587.41;4801900;29;20072;-81
2021/11/07 01:57:31;;;;;;;3.15;1.80;;;;;;;16.91;57.46;101590.03;4815354;29;20023;-81
2021/11/07 02:00:06;;;;;;;4.07;1.95;;;;;;;16.91;57.35;101589.16;4815383;29;20085;-81
2021/11/07 02:02:35;;;;;;;4.00;1.90;;;;;;;16.89;57.35;101586.53;4815527;29;20067;-81
2021/11/07 02:05:03;;;;;;;4.93;1.75;;;;;;;16.90;57.71;101590.00;4800444;29;20031;-81
2021/11/07 02:07:29;;;;;;;4.38;1.83;;;;;;;16.88;57.35;101582.22;4815113;29;20035;-81
2021/11/07 02:09:55;;;;;;;4.60;2.08;;;;;;;16.89;57.25;101580.47;4817261;29;20031;-81
2021/11/07 02:12:21;;;;;;;4.32;2.00;;;;;;;16.89;57.22;101580.47;4816452;29;20030;-81
2021/11/07 02:14:47;;;;;;;3.97;1.60;;;;;;;16.89;57.19;101581.34;4816641;29;20026;-81
2021/11/07 02:17:13;;;;;;;4.82;1.83;;;;;;;16.90;57.18;101577.91;4816126;29;20037;-80
2021/11/07 02:19:45;;;;;;;6.40;2.00;;;;;;;16.89;56.95;101577.88;4814960;29;20042;-81
2021/11/07 02:22:12;;;;;;;4.22;1.98;;;;;;;16.88;57.22;101582.22;4799997;29;20038;-81
2021/11/07 02:24:39;;;;;;;4.45;1.92;;;;;;;16.88;57.22;101582.22;4799909;29;20045;-80
2021/11/07 02:27:06;;;;;;;5.72;1.90;;;;;;;16.90;56.91;101572.69;4800723;29;20492;-81
2021/11/07 02:29:36;;;;;;;4.22;1.80;;;;;;;16.88;57.30;101569.22;4816105;29;20042;-80
2021/11/07 02:32:02;;;;;;;4.72;1.80;;;;;;;16.88;57.05;101564.03;4822168;29;20504;-81
2021/11/07 02:34:30;;;;;;;4.90;1.73;;;;;;;16.89;56.95;101559.69;4835165;29;20031;-80
2021/11/07 02:36:56;;;;;;;5.18;2.00;;;;;;;16.89;56.96;101568.34;4833778;29;20049;-80
2021/11/07 02:39:24;;;;;;;4.93;1.95;;;;;;;16.88;57.15;101553.63;4816719;29;20052;-80
2021/11/07 02:41:50;;;;;;;4.97;2.08;;;;;;;16.89;56.99;101551.88;4833545;29;20042;-81
2021/11/07 02:44:42;;;;;;;5.00;2.10;;;;;;;16.89;56.81;101557.09;4834434;29;20023;-81
2021/11/07 02:47:11;;;;;;;5.72;2.05;;;;;;;16.87;57.00;101554.47;4836869;29;20064;-81
2021/11/07 02:49:38;;;;;;;4.82;2.25;;;;;;;16.86;57.01;101551.00;4838625;29;20042;-81
2021/11/07 02:52:06;;;;;;;6.03;1.80;;;;;;;16.89;56.84;101559.69;4837519;29;20027;-81
2021/11/07 02:54:33;;;;;;;5.38;2.00;;;;;;;16.88;56.81;101556.22;4822233;29;20034;-81
2021/11/07 02:57:02;;;;;;;5.85;2.22;;;;;;;16.87;56.71;101546.66;4821801;29;20041;-81
2021/11/07 02:59:32;;;;;;;5.18;1.88;;;;;;;16.86;56.90;101547.53;4837296;29;20114;-80
2021/11/07 03:02:06;;;;;;;4.95;1.88;;;;;;;16.86;56.68;101543.19;4838287;29;20034;-80
2021/11/07 03:04:33;;;;;;;6.18;2.05;;;;;;;16.87;56.88;101544.06;4838140;29;20067;-80
2021/11/07 03:06:59;;;;;;;5.50;1.70;;;;;;;16.89;56.71;101551.88;4836007;29;20061;-81
2021/11/07 03:09:31;;;;;;;3.85;1.90;;;;;;;16.86;56.65;101537.16;4822016;29;20131;-80
2021/11/07 03:11:58;;;;;;;4.82;1.73;;;;;;;16.87;56.85;101538.88;4838382;29;20042;-80
2021/11/07 03:14:30;;;;;;;4.88;1.80;;;;;;;16.86;56.57;101548.41;4821979;29;20026;-81
2021/11/07 03:16:57;;;;;;;4.72;1.90;;;;;;;16.86;56.53;101542.34;4821662;29;20110;-81
2021/11/07 03:19:25;;;;;;;4.20;1.70;;;;;;;16.86;56.55;101547.53;4838781;29;20030;-80
2021/11/07 03:21:53;;;;;;;5.03;1.98;;;;;;;16.85;56.44;101540.59;4834853;29;20400;-81
2021/11/07 03:24:23;;;;;;;4.00;1.70;;;;;;;16.86;56.76;101550.13;4838903;29;20047;-81
2021/11/07 03:26:50;;;;;;;4.57;1.60;;;;;;;16.85;56.43;101545.78;4822734;29;20061;-81
2021/11/07 03:29:20;;;;;;;5.82;2.05;;;;;;;16.84;56.49;101542.31;4836888;29;20103;-81
2021/11/07 03:32:02;;;;;;;4.78;1.80;;;;;;;16.84;56.35;101547.53;4837985;29;20046;-81
2021/11/07 03:34:31;;;;;;;3.88;1.80;;;;;;;16.86;56.37;101552.75;4838732;29;20026;-81
2021/11/07 03:37:07;;;;;;;4.63;1.55;;;;;;;16.85;56.31;101549.28;4823080;29;20030;-80
2021/11/07 03:39:36;;;;;;;3.55;1.65;;;;;;;16.84;56.56;101555.31;4837899;29;20030;-80
2021/11/07 03:42:07;;;;;;;5.40;1.83;;;;;;;16.85;56.36;101554.47;4839011;29;20042;-81
2021/11/07 03:44:34;;;;;;;4.43;1.55;;;;;;;16.83;56.37;101552.72;4822979;29;20030;-80
2021/11/07 03:47:01;;;;;;;4.53;1.90;;;;;;;16.83;56.26;101550.09;4822827;29;20027;-80
2021/11/07 03:49:27;;;;;;;5.85;2.17;;;;;;;16.84;56.19;101550.13;4836523;29;20445;-80
2021/11/07 03:51:53;;;;;;;4.32;1.83;;;;;;;16.83;56.30;101540.59;4837112;29;20121;-81
2021/11/07 03:54:22;;;;;;;5.03;1.77;;;;;;;16.83;56.25;101543.19;4820266;29;20058;-80
2021/11/07 03:56:47;;;;;;;3.75;1.75;;;;;;;16.83;56.23;101544.91;4805410;29;20143;-80
2021/11/07 03:59:13;;;;;;;4.32;1.90;;;;;;;16.84;56.11;101541.47;4837071;29;20038;-80
2021/11/07 04:01:39;;;;;;;4.40;1.80;;;;;;;16.85;56.10;101545.78;4821960;29;20049;-80
2021/11/07 04:04:06;;;;;;;5.07;1.92;;;;;;;16.84;55.85;101544.06;4821912;29;20049;-80
2021/11/07 04:06:33;;;;;;;4.63;1.85;;;;;;;16.84;56.12;101531.94;4807075;29;20037;-80
2021/11/07 04:09:00;;;;;;;3.92;1.85;;;;;;;16.83;55.92;101537.13;4838118;29;20030;-80
2021/11/07 04:11:29;;;;;;;3.95;1.98;;;;;;;16.82;56.05;101557.03;4838764;29;20023;-80
2021/11/07 04:13:54;;;;;;;4.05;1.70;;;;;;;16.82;55.52;101551.84;4835422;29;20061;-80
2021/11/07 04:16:21;;;;;;;5.97;1.92;;;;;;;16.83;56.15;101545.81;4837607;29;20026;-80
2021/11/07 04:18:48;;;;;;;4.63;1.80;;;;;;;16.82;55.82;101548.38;4803702;29;20411;-80
2021/11/07 04:21:15;;;;;;;3.15;1.65;;;;;;;16.81;55.85;101551.81;4834213;29;20061;-81
2021/11/07 04:23:41;;;;;;;4.65;1.75;;;;;;;16.82;55.81;101543.19;4819707;29;20030;-81
2021/11/07 04:26:07;;;;;;;5.00;1.98;;;;;;;16.81;56.45;101521.53;4835208;29;20487;-82
2021/11/07 04:28:33;;;;;;;5.78;1.80;;;;;;;16.80;56.01;101543.16;4835808;29;20030;-80
2021/11/07 04:30:59;;;;;;;3.78;1.75;;;;;;;16.82;55.94;101562.25;4820356;29;20110;-80
2021/11/07 04:33:25;;;;;;;4.47;1.92;;;;;;;16.82;55.88;101536.25;4836144;29;20046;-80
2021/11/07 04:35:51;;;;;;;4.30;1.42;;;;;;;16.82;55.98;101550.97;4819467;29;20102;-81
2021/11/07 04:38:18;;;;;;;5.68;1.90;;;;;;;16.80;55.68;101548.38;4837010;29;20022;-80
2021/11/07 04:40:44;;;;;;;4.30;1.77;;;;;;;16.81;56.07;101536.22;4836668;29;20399;-80
2021/11/07 04:43:09;;;;;;;6.07;2.20;;;;;;;16.82;55.85;101543.19;4819752;29;20027;-80
2021/11/07 04:45:38;;;;;;;5.63;1.90;;;;;;;16.81;56.07;101531.94;4835833;29;20466;-80
2021/11/07 04:48:05;;;;;;;5.35;2.13;;;;;;;16.79;55.75;101544.00;4834786;29;20034;-80
2021/11/07 04:50:36;;;;;;;4.60;1.73;;;;;;;16.80;55.75;101548.38;4832907;29;20472;-80
2021/11/07 04:53:04;;;;;;;6.07;1.83;;;;;;;16.79;55.69;101543.16;4816748;29;20018;-80
2021/11/07 04:55:31;;;;;;;4.75;1.70;;;;;;;16.79;56.00;101543.16;4831316;29;20486;-79
2021/11/07 04:57:56;;;;;;;5.57;1.80;;;;;;;16.80;56.02;101550.09;4831344;29;20030;-80
2021/11/07 05:00:24;;;;;;;4.60;1.90;;;;;;;16.80;55.79;101544.91;4833436;29;20395;-80
2021/11/07 05:02:51;;;;;;;4.50;1.90;;;;;;;16.80;55.79;101550.09;4816638;29;20035;-80
2021/11/07 05:05:19;;;;;;;7.20;1.92;;;;;;;16.78;55.73;101552.66;4832613;29;20022;-80
2021/11/07 05:07:44;;;;;;;5.85;1.80;;;;;;;16.79;55.62;101549.22;4833364;29;20060;-80
2021/11/07 05:10:10;;;;;;;5.00;1.90;;;;;;;16.79;55.96;101559.59;4834075;29;20030;-81
2021/11/07 05:12:36;;;;;;;5.40;1.98;;;;;;;16.79;55.79;101541.41;4816590;29;20457;-80
2021/11/07 05:15:03;;;;;;;4.75;1.63;;;;;;;16.80;55.91;101547.50;4833148;29;20072;-80
2021/11/07 05:17:29;;;;;;;4.63;1.75;;;;;;;16.79;55.78;101548.34;4815969;29;20035;-80
2021/11/07 05:19:54;;;;;;;6.00;1.95;;;;;;;16.79;55.91;101549.22;4831382;29;20033;-80
2021/11/07 05:22:20;;;;;;;5.53;1.85;;;;;;;16.79;55.80;101548.34;4816460;29;20035;-80
2021/11/07 05:24:46;;;;;;;4.82;1.90;;;;;;;16.78;55.60;101552.66;4831983;29;20110;-80
2021/11/07 05:27:12;;;;;;;4.13;1.70;;;;;;;16.78;55.58;101557.00;4832732;29;20034;-80
2021/11/07 05:29:38;;;;;;;4.63;1.75;;;;;;;16.77;55.90;101558.72;4817365;29;20069;-80
2021/11/07 05:32:04;;;;;;;4.20;1.80;;;;;;;16.78;55.56;101559.59;4827706;29;20464;-80
2021/11/07 05:34:30;;;;;;;4.90;1.67;;;;;;;16.78;55.64;101552.66;4799692;29;20102;-82
2021/11/07 05:36:56;;;;;;;3.63;1.52;;;;;;;16.77;55.86;101544.88;4814011;29;20091;-81
2021/11/07 05:39:23;;;;;;;4.60;1.65;;;;;;;16.77;55.62;101544.88;4811861;29;20475;-80
2021/11/07 05:41:49;;;;;;;5.50;1.58;;;;;;;16.78;55.47;101536.19;4812175;29;20037;-80
2021/11/07 05:44:15;;;;;;;4.00;1.80;;;;;;;16.78;55.73;101539.66;4813682;29;20031;-80
2021/11/07 05:46:41;;;;;;;5.60;1.83;;;;;;;16.77;55.62;101550.06;4797481;29;20035;-80
2021/11/07 05:49:08;;;;;;;4.82;1.90;;;;;;;16.76;55.72;101553.50;4815122;29;20039;-80
2021/11/07 05:51:35;;;;;;;5.55;1.77;;;;;;;16.75;55.63;101544.00;4813717;29;20026;-80
2021/11/07 05:54:01;;;;;;;5.90;1.90;;;;;;;16.76;55.66;101540.53;4799107;29;20037;-80
2021/11/07 05:56:27;;;;;;;4.22;1.70;;;;;;;16.75;55.43;101547.44;4783705;29;20468;-80
2021/11/07 05:58:52;;;;;;;4.10;1.75;;;;;;;16.76;55.32;101558.72;4799168;29;20042;-80
2021/11/07 06:01:18;;;;;;;4.75;1.60;;;;;;;16.75;55.58;101557.84;4814351;29;20090;-80
2021/11/07 06:03:43;;;;;;;6.03;1.92;;;;;;;16.74;55.51;101560.44;4782995;29;20027;-80
2021/11/07 06:06:09;;;;;;;5.05;2.08;;;;;;;16.75;55.66;101562.19;4813466;29;20037;-79
2021/11/07 06:08:35;;;;;;;4.95;1.83;;;;;;;16.75;55.26;101550.06;4814303;29;20043;-80
2021/11/07 06:11:01;;;;;;;6.32;1.85;;;;;;;16.75;55.52;101546.59;4798848;29;20039;-80
2021/11/07 06:13:26;;;;;;;5.93;2.00;;;;;;;16.74;55.58;101543.09;4798621;29;20027;-80
2021/11/07 06:15:52;;;;;;;4.47;1.67;;;;;;;16.74;55.68;101556.09;4799094;29;20038;-80
2021/11/07 06:18:18;;;;;;;5.18;1.92;;;;;;;16.73;55.51;101554.38;4813973;29;20030;-80
2021/11/07 06:20:43;;;;;;;6.18;2.03;;;;;;;16.73;55.54;101546.56;4810249;29;20046;-80
2021/11/07 06:23:10;;;;;;;5.07;1.85;;;;;;;16.75;55.42;101546.59;4781267;29;20038;-80
2021/11/07 06:25:36;;;;;;;5.40;1.95;;;;;;;16.75;55.49;101541.41;4797591;29;20023;-80
2021/11/07 06:28:03;;;;;;;5.45;1.80;;;;;;;16.74;55.60;101550.91;4812052;29;20084;-81
2021/11/07 06:30:29;;;;;;;5.45;1.88;;;;;;;16.74;55.48;101555.22;4798105;29;20434;-79
2021/11/07 06:32:55;;;;;;;6.30;2.08;;;;;;;16.75;55.39;101562.19;4808963;29;20054;-80
2021/11/07 06:35:20;;;;;;;4.63;1.77;;;;;;;16.74;55.45;101568.22;4817542;29;20030;-80
2021/11/07 06:37:46;;;;;;;4.03;1.63;;;;;;;16.75;55.25;101572.59;4831725;29;20040;-80
2021/11/07 06:40:13;;;;;;;4.18;1.88;;;;;;;16.73;55.33;101569.97;4818428;29;20066;-80
2021/11/07 06:42:39;;;;;;;6.60;2.00;;;;;;;16.73;55.75;101562.16;4817692;29;20042;-80
2021/11/07 06:45:05;;;;;;;4.60;1.80;;;;;;;16.72;55.52;101555.22;4833935;29;20034;-80
2021/11/07 06:47:32;;;;;;;5.22;1.92;;;;;;;16.74;55.29;101563.03;4835138;29;20082;-80
2021/11/07 06:49:58;;;;;;;6.75;1.90;;;;;;;16.72;55.47;101560.41;4834761;29;20118;-80
2021/11/07 06:52:25;;;;;;;4.53;1.77;;;;;;;16.73;55.28;101567.38;4834490;29;20030;-80
2021/11/07 06:54:50;;;;;;;4.10;1.60;;;;;;;16.73;55.20;101566.50;4833102;29;20026;-80
2021/11/07 06:57:16;;;;;;;4.30;1.80;;;;;;;16.73;55.29;101574.31;4818222;29;20068;-80
2021/11/07 06:59:42;;;;;;;5.88;1.67;;;;;;;16.73;55.11;101572.56;4803303;29;20125;-80
2021/11/07 07:02:08;;;;;;;5.07;1.85;;;;;;;16.74;55.50;101587.28;4813717;29;20064;-80
2021/11/07 07:04:35;;;;;;;4.40;1.63;;;;;;;16.72;55.36;101585.53;4813702;29;20018;-79
2021/11/07 07:07:01;;;;;;;4.35;1.73;;;;;;;16.73;55.37;101575.16;4831042;29;20055;-81
2021/11/07 07:09:28;;;;;;;4.97;1.83;;;;;;;16.74;55.34;101587.28;4814083;29;20032;-80
2021/11/07 07:12:07;;;;;;;3.70;1.80;;;;;;;16.74;55.20;101583.81;4815685;29;20030;-80
2021/11/07 07:14:44;;;;;;;6.28;2.03;;;;;;;16.75;55.15;101573.44;4823530;29;20034;-82
2021/11/07 07:20:28;;;;;;;6.18;2.17;;;;;;;16.76;55.14;101571.72;4834305;29;20038;-80
2021/11/07 07:33:50;;;;;;;4.05;1.80;;;;;;;16.83;54.69;101571.81;4820159;29;20051;-81
2021/11/07 07:36:17;;;;;;;5.10;1.75;;;;;;;16.83;54.83;101576.09;4840900;29;20048;-81
2021/11/07 07:39:04;;;;;;;4.68;1.77;;;;;;;16.81;55.05;101580.41;4841699;29;20063;-81
2021/11/07 07:41:54;;;;;;;5.60;1.75;;;;;;;16.82;55.17;101585.63;4840270;29;20046;-81
2021/11/07 07:44:42;;;;;;;5.30;1.88;;;;;;;16.87;54.94;101583.06;4825381;29;20057;-81
2021/11/07 07:47:17;;;;;;;4.80;1.88;;;;;;;16.84;54.83;101577.84;4823915;29;20034;-81
2021/11/07 07:49:58;;;;;;;5.65;1.98;;;;;;;16.80;55.03;101587.34;4838435;29;20075;-81
2021/11/07 07:52:26;;;;;;;5.03;1.90;;;;;;;16.78;55.02;101598.59;4823165;29;20068;-81
2021/11/07 08:00:44;;;;;;;6.45;1.90;;;;;;;16.82;54.74;101596.03;5178657;24;20071;-85
2021/11/07 08:04:12;;;;;;;6.63;2.10;;;;;;;16.85;54.68;101606.47;4832519;29;20057;-85
2021/11/07 08:31:03;;;;;;;6.07;1.98;;;;;;;16.85;54.67;101600.38;5308593;24;20083;-85
2021/11/07 08:33:45;;;;;;;5.85;2.05;;;;;;;16.88;54.53;101610.81;4792021;30;20032;-84
2021/11/07 08:36:23;;;;;;;5.32;2.10;;;;;;;16.88;54.44;101616.00;4771958;30;20058;-81
2021/11/07 08:38:55;;;;;;;4.35;1.80;;;;;;;16.96;54.30;101618.63;4780422;30;20162;-80
2021/11/07 08:41:22;;;;;;;4.80;1.77;;;;;;;16.94;54.23;101618.66;4779437;30;20043;-80
2021/11/07 09:00:27;;;;;;;5.80;1.80;;;;;;;16.93;54.64;101622.09;4778949;30;20048;-81
2021/11/07 09:05:53;;;;;;;6.10;2.15;;;;;;;16.89;54.76;101619.47;4797422;29;20066;-80
2021/11/07 09:08:22;;;;;;;5.18;1.88;;;;;;;16.93;54.31;101609.09;4793656;29;20083;-81
2021/11/07 09:10:47;;;;;;;4.78;1.95;;;;;;;16.99;54.12;101614.34;4796419;29;20031;-81
2021/11/07 09:13:16;;;;;;;3.22;1.45;;;;;;;17.02;54.07;101618.69;4782595;29;20035;-81
2021/11/07 09:15:45;;;;;;;4.70;1.83;;;;;;;17.03;54.31;101613.50;4797498;29;20117;-81
2021/11/07 09:18:12;;;;;;;4.63;1.80;;;;;;;17.01;54.18;101609.16;4782067;30;20031;-81
2021/11/07 09:25:50;;;;;;;4.80;1.85;;;;;;;16.97;54.37;101605.66;4797421;29;20035;-81
2021/11/07 09:28:22;;;;;;;4.22;1.63;;;;;;;17.00;54.47;101613.47;4783155;30;20059;-81
2021/11/07 09:33:46;;;;;;;6.03;1.80;;;;;;;17.03;54.21;101612.63;4835962;29;20481;-80
2021/11/07 09:36:26;;;;;;;6.38;2.05;;;;;;;17.04;54.05;101628.22;4838578;29;20598;-81
2021/11/07 10:10:30;;;;;;;4.75;1.65;;;;;;;16.98;54.27;101611.72;4812438;29;20031;-85
2021/11/07 10:13:04;;;;;;;4.20;1.90;;;;;;;16.95;54.39;101628.19;4776792;30;20043;-81
2021/11/07 10:20:54;;;;;;;6.75;2.17;;;;;;;16.95;54.10;101628.19;5098244;24;20058;-81
2021/11/07 11:38:47;;;;;;;4.35;1.85;;;;;;;17.08;53.63;101623.06;4849059;29;20063;-85
2021/11/07 11:42:00;;;;;;;5.30;1.95;;;;;;;17.05;53.72;101629.13;4847429;29;20055;-85
2021/11/07 12:14:36;;;;;;;4.93;1.90;;;;;;;17.04;53.56;101630.81;5295433;24;20061;-84
2021/11/07 12:17:47;;;;;;;5.82;2.08;;;;;;;17.10;53.66;101629.13;4830979;29;20055;-85
2021/11/07 12:28:06;;;;;;;6.38;2.20;;;;;;;17.09;53.55;101623.03;4824636;29;20033;-85
2021/11/07 12:44:47;;;;;;;5.43;2.00;;;;;;;16.99;53.86;101635.13;4812099;30;20070;-84
2021/11/07 12:47:47;;;;;;;4.93;1.90;;;;;;;17.02;53.93;101631.69;4812093;30;20072;-85
2021/11/07 12:50:14;;;;;;;5.78;2.17;;;;;;;17.01;54.04;101627.34;4803324;30;20083;-81
2021/11/07 12:52:53;;;;;;;5.55;2.00;;;;;;;17.04;53.76;101632.56;4789068;30;20397;-80
2021/11/07 12:55:27;;;;;;;5.43;2.10;;;;;;;17.01;54.02;101668.97;4804362;30;20030;-81
2021/11/07 12:57:53;;;;;;;6.35;1.92;;;;;;;17.02;53.66;101658.53;4788900;30;20039;-81
2021/11/07 13:00:21;;;;;;;5.63;2.28;;;;;;;17.03;53.77;101656.84;4804498;30;20031;-81
2021/11/07 13:02:49;;;;;;;6.78;2.15;;;;;;;17.03;53.63;101649.03;4803054;29;20359;-81
2021/11/07 13:05:28;;;;;;;7.57;2.33;;;;;;;16.98;53.83;101633.38;4802214;30;20107;-80
2021/11/07 13:08:00;;;;;;;4.47;2.00;;;;;;;16.97;53.97;101636.84;4802774;30;20034;-80
2021/11/07 13:13:31;;;;;;;7.18;2.30;;;;;;;16.97;53.90;101644.66;4801525;29;20042;-80
2021/11/07 13:21:57;;;;;;;6.38;2.33;;;;;;;16.94;54.03;101639.44;4776523;30;20042;-82
2021/11/07 13:27:04;;;;;;;5.43;1.90;;;;;;;16.92;54.08;101658.47;4798579;30;20031;-81
2021/11/07 13:30:05;;;;;;;4.47;1.60;;;;;;;16.92;54.12;101659.38;4798936;29;20095;-84
2021/11/07 13:36:20;;;;;;;4.72;1.90;;;;;;;16.88;54.14;101664.53;4812401;29;20045;-84
2021/11/07 13:39:41;;;;;;;6.65;2.10;;;;;;;16.91;54.07;101667.16;4758329;30;20078;-84
2021/11/07 13:42:22;;;;;;;4.72;1.95;;;;;;;16.88;54.09;101673.22;4762670;30;20520;-80
2021/11/07 14:14:29;;;;;;;6.55;1.90;;;;;;;16.86;53.86;101669.72;4848142;29;20049;-85
2021/11/07 14:17:25;;;;;;;4.32;1.75;;;;;;;16.86;54.36;101670.59;5046436;24;20054;-84
2021/11/07 14:20:50;;;;;;;5.40;2.08;;;;;;;16.85;54.08;101674.06;4805446;29;20039;-85
2021/11/07 14:27:25;;;;;;;6.35;2.03;;;;;;;16.88;54.18;101649.81;4810064;30;20100;-84
2021/11/07 14:42:57;;;;;;;4.75;2.00;;;;;;;16.87;54.06;101666.25;4848456;29;20408;-85
2021/11/07 15:51:51;;;;;;;4.78;1.70;;;;;;;16.85;54.54;101704.34;4800383;29;20059;-80
2021/11/07 15:54:22;;;;;;;5.30;1.92;;;;;;;16.86;54.54;101706.13;4799658;29;20036;-81
2021/11/07 15:57:40;;;;;;;4.45;1.60;;;;;;;16.85;54.59;101707.84;4800057;29;20481;-81
2021/11/07 16:02:15;;;;;;;5.05;1.70;;;;;;;16.87;54.57;101710.44;4801050;30;20039;-81
2021/11/07 16:09:47;;;;;;;4.00;1.67;;;;;;;16.85;54.69;101736.44;4795650;29;20047;-81
2021/11/07 16:17:42;;;;;;;3.97;1.70;;;;;;;16.88;54.67;101782.41;5252614;24;20473;-80
2021/11/07 16:23:31;;;;;;;3.83;1.58;;;;;;;16.88;54.63;101791.94;4837115;29;20099;-81
2021/11/07 16:32:32;;;;;;;4.22;1.80;;;;;;;16.86;54.79;101797.09;5002325;24;20075;-80
2021/11/07 16:35:10;;;;;;;4.25;1.60;;;;;;;16.88;54.75;101791.94;4821898;29;20062;-81
2021/11/07 16:37:40;;;;;;;3.35;1.42;;;;;;;16.88;54.76;101773.72;4800702;29;20042;-81
2021/11/07 16:42:40;;;;;;;4.18;1.60;;;;;;;16.87;54.89;101759.84;4814439;29;20035;-81
2021/11/07 16:45:08;;;;;;;4.15;1.42;;;;;;;16.90;54.72;101778.09;4801026;29;20064;-81
2021/11/07 16:56:17;;;;;;;4.60;1.65;;;;;;;16.90;54.87;101779.78;5572966;24;20026;-84
2021/11/07 16:58:54;;;;;;;5.13;1.85;;;;;;;16.88;54.84;101782.41;4820681;29;20053;-81
2021/11/07 17:08:13;;;;;;;3.97;1.50;;;;;;;16.90;54.77;101791.09;4823569;29;20103;-81
2021/11/07 17:10:40;;;;;;;3.80;1.70;;;;;;;16.91;55.10;101792.81;4810686;29;20034;-81
2021/11/07 17:13:10;;;;;;;4.80;1.45;;;;;;;16.91;54.67;101786.75;4820116;29;20031;-81
2021/11/07 17:16:16;;;;;;;4.28;1.50;;;;;;;16.91;55.00;101781.53;4802181;29;20030;-81
2021/11/07 17:18:48;;;;;;;4.43;1.50;;;;;;;16.92;55.04;101791.97;4812686;29;20031;-85
2021/11/07 17:29:06;;;;;;;4.75;1.60;;;;;;;16.92;55.00;101797.16;5409376;24;20062;-81
2021/11/07 17:38:35;;;;;;;4.35;1.70;;;;;;;16.93;54.76;101791.09;4847962;29;20022;-84
2021/11/07 17:49:33;;;;;;;;;;;;;;;16.94;54.94;101812.75;4806567;29;20062;-81
2021/11/07 17:54:55;;;;;;;5.43;1.83;;;;;;;16.97;54.53;101800.66;4822215;29;20083;-80
2021/11/07 17:57:25;;;;;;;5.93;1.85;;;;;;;17.02;54.39;101803.31;4802475;29;20035;-78
2021/11/07 17:59:55;;;;;;;7.28;1.98;;;;;;;17.04;54.42;101799.84;4815351;29;20105;-81
2021/11/07 18:02:20;;;;;;;7.60;1.88;;;;;;;17.04;54.34;101794.66;4771248;29;20069;-79
2021/11/07 18:05:06;;;;;;;10.45;1.95;;;;;;;17.08;54.56;101799.88;4814085;29;20030;-82
2021/11/07 18:07:49;;;;;;;7.18;1.92;;;;;;;17.09;54.57;101801.63;4805283;29;20076;-82
2021/11/07 18:10:20;;;;;;;4.28;1.50;;;;;;;17.05;54.58;101796.41;4818518;29;20443;-80
2021/11/07 18:12:51;;;;;;;5.63;1.90;;;;;;;16.99;54.87;101795.50;4791205;29;20017;-83
2021/11/07 18:15:18;;;;;;;5.88;1.92;;;;;;;16.95;55.03;101804.97;4796204;29;20038;-78
2021/11/07 18:24:36;;;;;;;6.57;1.60;;;;;;;16.87;55.02;101806.63;4817861;29;20305;-83
2021/11/07 19:05:27;;;;;;;3.03;1.48;;;;;;;16.87;55.72;101848.22;4790777;30;20051;-85
2021/11/07 19:08:12;;;;;;;5.80;1.60;;;;;;;16.94;55.42;101847.44;4774425;30;20110;-84
2021/11/07 19:10:38;;;;;;;7.20;1.70;;;;;;;16.92;55.72;101849.16;4770933;30;20028;-81
2021/11/07 19:13:07;;;;;;;9.10;1.63;;;;;;;16.90;55.45;101847.38;4788933;30;20091;-82
